sensor_id;sensor_type;location;lat;lon;timestamp;P1;P2;P0
68698;PMS7003;55680;48.850;2.310;2023-04-06T00:00:12;3.00;0.00;0.00
68698;PMS7003;55680;48.850;2.310;2023-04-06T00:02:39;0.00;0.00;0.00
68698;PMS7003;55680;48.850;2.310;2023-04-06T00:05:05;0.50;0.25;0.00
68698;PMS7003;55680;48.850;2.310;2023-04-06T00:07:31;4.00;0.00;0.00
68698;PMS7003;55680;48.850;2.310;2023-04-06T00:09:58;1.00;1.00;0.00
68698;PMS7003;55680;48.850;2.310;2023-04-06T00:12:23;3.00;0.75;0.25
68698;PMS7003;55680;48.850;2.310;2023-04-06T00:14:49;1.00;1.00;0.00
68698;PMS7003;55680;48.850;2.310;2023-04-06T00:17:15;1.00;1.00;0.75
68698;PMS7003;55680;48.850;2.310;2023-04-06T00:19:40;3.00;0.00;0.00
68698;PMS7003;55680;48.850;2.310;2023-04-06T00:22:06;0.00;0.00;0.00
68698;PMS7003;55680;48.850;2.310;2023-04-06T00:24:31;1.00;0.00;0.00
68698;PMS7003;55680;48.850;2.310;2023-04-06T00:26:57;1.00;1.00;0.00
68698;PMS7003;55680;48.850;2.310;2023-04-06T00:29:22;1.25;0.75;0.75
68698;PMS7003;55680;48.850;2.310;2023-04-06T00:31:47;8.50;5.75;3.00
68698;PMS7003;55680;48.850;2.310;2023-04-06T00:34:13;1.00;1.00;0.50
68698;PMS7003;55680;48.850;2.310;2023-04-06T00:36:40;0.00;0.00;0.00
68698;PMS7003;55680;48.850;2.310;2023-04-06T00:39:06;0.00;0.00;0.00
68698;PMS7003;55680;48.850;2.310;2023-04-06T00:41:31;0.00;0.00;0.00
68698;PMS7003;55680;48.850;2.310;2023-04-06T00:43:56;0.00;0.00;0.00
68698;PMS7003;55680;48.850;2.310;2023-04-06T00:46:22;0.50;0.50;0.00
68698;PMS7003;55680;48.850;2.310;2023-04-06T00:48:47;6.00;1.00;0.00
68698;PMS7003;55680;48.850;2.310;2023-04-06T00:51:13;3.00;3.00;1.00
68698;PMS7003;55680;48.850;2.310;2023-04-06T00:53:38;0.00;0.00;0.00
68698;PMS7003;55680;48.850;2.310;2023-04-06T00:56:04;0.00;0.00;0.00
68698;PMS7003;55680;48.850;2.310;2023-04-06T00:58:29;3.00;2.50;0.75
68698;PMS7003;55680;48.850;2.310;2023-04-06T01:00:55;0.00;0.00;0.00
68698;PMS7003;55680;48.850;2.310;2023-04-06T01:03:21;1.00;1.00;0.00
68698;PMS7003;55680;48.850;2.310;2023-04-06T01:05:46;1.50;0.00;0.00
68698;PMS7003;55680;48.850;2.310;2023-04-06T01:08:11;0.75;0.75;0.00
68698;PMS7003;55680;48.850;2.310;2023-04-06T01:10:37;0.00;0.00;0.00
68698;PMS7003;55680;48.850;2.310;2023-04-06T01:13:02;0.00;0.00;0.00
68698;PMS7003;55680;48.850;2.310;2023-04-06T01:15:28;0.00;0.00;0.00
68698;PMS7003;55680;48.850;2.310;2023-04-06T01:17:53;0.00;0.00;0.00
68698;PMS7003;55680;48.850;2.310;2023-04-06T01:20:19;2.50;0.00;0.00
68698;PMS7003;55680;48.850;2.310;2023-04-06T01:22:44;3.50;1.00;0.00
68698;PMS7003;55680;48.850;2.310;2023-04-06T01:25:10;3.00;1.00;1.00
68698;PMS7003;55680;48.850;2.310;2023-04-06T01:27:35;0.00;0.00;0.00
68698;PMS7003;55680;48.850;2.310;2023-04-06T01:30:01;1.00;0.50;0.00
68698;PMS7003;55680;48.850;2.310;2023-04-06T01:32:26;4.50;3.25;1.00
68698;PMS7003;55680;48.850;2.310;2023-04-06T01:34:52;1.25;1.25;1.25
68698;PMS7003;55680;48.850;2.310;2023-04-06T01:37:17;0.00;0.00;0.00
68698;PMS7003;55680;48.850;2.310;2023-04-06T01:39:43;0.00;0.00;0.00
68698;PMS7003;55680;48.850;2.310;2023-04-06T01:42:08;1.00;1.00;0.00
68698;PMS7003;55680;48.850;2.310;2023-04-06T01:44:34;10.50;8.00;6.00
68698;PMS7003;55680;48.850;2.310;2023-04-06T01:46:59;8.00;2.00;2.00
68698;PMS7003;55680;48.850;2.310;2023-04-06T01:49:24;0.00;0.00;0.00
68698;PMS7003;55680;48.850;2.310;2023-04-06T01:51:50;1.00;0.00;0.00
68698;PMS7003;55680;48.850;2.310;2023-04-06T01:54:16;5.75;4.50;4.50
68698;PMS7003;55680;48.850;2.310;2023-04-06T01:56:42;5.00;2.75;1.75
68698;PMS7003;55680;48.850;2.310;2023-04-06T01:59:07;3.00;1.00;0.00
68698;PMS7003;55680;48.850;2.310;2023-04-06T02:01:32;0.00;0.00;0.00
68698;PMS7003;55680;48.850;2.310;2023-04-06T02:03:58;3.00;3.00;1.00
68698;PMS7003;55680;48.850;2.310;2023-04-06T02:06:23;3.00;1.00;0.25
68698;PMS7003;55680;48.850;2.310;2023-04-06T02:08:48;0.50;0.50;0.00
68698;PMS7003;55680;48.850;2.310;2023-04-06T02:11:14;0.00;0.00;0.00
68698;PMS7003;55680;48.850;2.310;2023-04-06T02:13:40;3.50;1.00;0.00
68698;PMS7003;55680;48.850;2.310;2023-04-06T02:16:05;1.00;0.00;0.00
68698;PMS7003;55680;48.850;2.310;2023-04-06T02:18:31;15.75;13.50;9.00
68698;PMS7003;55680;48.850;2.310;2023-04-06T02:20:56;0.50;0.50;0.00
68698;PMS7003;55680;48.850;2.310;2023-04-06T02:23:21;3.00;3.00;0.00
68698;PMS7003;55680;48.850;2.310;2023-04-06T02:25:47;0.00;0.00;0.00
68698;PMS7003;55680;48.850;2.310;2023-04-06T02:28:13;0.00;0.00;0.00
68698;PMS7003;55680;48.850;2.310;2023-04-06T02:30:39;0.25;0.25;0.00
68698;PMS7003;55680;48.850;2.310;2023-04-06T02:33:04;0.00;0.00;0.00
68698;PMS7003;55680;48.850;2.310;2023-04-06T02:35:30;0.50;0.50;0.00
68698;PMS7003;55680;48.850;2.310;2023-04-06T02:37:56;0.75;0.00;0.00
68698;PMS7003;55680;48.850;2.310;2023-04-06T02:40:21;12.50;9.00;5.75
68698;PMS7003;55680;48.850;2.310;2023-04-06T02:42:47;2.50;2.50;1.00
68698;PMS7003;55680;48.850;2.310;2023-04-06T02:45:12;3.00;1.00;1.00
68698;PMS7003;55680;48.850;2.310;2023-04-06T02:47:38;0.00;0.00;0.00
68698;PMS7003;55680;48.850;2.310;2023-04-06T02:50:03;2.50;0.00;0.00
68698;PMS7003;55680;48.850;2.310;2023-04-06T02:52:30;0.25;0.25;0.00
68698;PMS7003;55680;48.850;2.310;2023-04-06T02:54:55;1.00;1.00;0.00
68698;PMS7003;55680;48.850;2.310;2023-04-06T02:57:20;0.50;0.50;0.50
68698;PMS7003;55680;48.850;2.310;2023-04-06T02:59:46;0.00;0.00;0.00
68698;PMS7003;55680;48.850;2.310;2023-04-06T03:02:11;3.00;0.50;0.00
68698;PMS7003;55680;48.850;2.310;2023-04-06T03:04:36;1.00;1.00;0.25
68698;PMS7003;55680;48.850;2.310;2023-04-06T03:07:02;0.25;0.25;0.00
68698;PMS7003;55680;48.850;2.310;2023-04-06T03:09:27;0.00;0.00;0.00
68698;PMS7003;55680;48.850;2.310;2023-04-06T03:11:53;0.25;0.25;0.25
68698;PMS7003;55680;48.850;2.310;2023-04-06T03:14:18;5.25;3.00;2.00
68698;PMS7003;55680;48.850;2.310;2023-04-06T03:16:46;4.75;1.00;1.00
68698;PMS7003;55680;48.850;2.310;2023-04-06T03:19:12;0.00;0.00;0.00
68698;PMS7003;55680;48.850;2.310;2023-04-06T03:21:38;6.50;2.25;1.00
68698;PMS7003;55680;48.850;2.310;2023-04-06T03:24:04;3.00;3.00;1.25
68698;PMS7003;55680;48.850;2.310;2023-04-06T03:26:30;6.00;4.50;2.00
68698;PMS7003;55680;48.850;2.310;2023-04-06T03:28:55;0.00;0.00;0.00
68698;PMS7003;55680;48.850;2.310;2023-04-06T03:31:21;0.25;0.25;0.00
68698;PMS7003;55680;48.850;2.310;2023-04-06T03:33:46;0.75;0.75;0.00
68698;PMS7003;55680;48.850;2.310;2023-04-06T03:36:11;0.25;0.25;0.00
68698;PMS7003;55680;48.850;2.310;2023-04-06T03:38:37;1.50;1.50;0.50
68698;PMS7003;55680;48.850;2.310;2023-04-06T03:41:02;0.00;0.00;0.00
68698;PMS7003;55680;48.850;2.310;2023-04-06T03:43:27;0.00;0.00;0.00
68698;PMS7003;55680;48.850;2.310;2023-04-06T03:45:53;0.00;0.00;0.00
68698;PMS7003;55680;48.850;2.310;2023-04-06T03:48:18;0.00;0.00;0.00
68698;PMS7003;55680;48.850;2.310;2023-04-06T03:50:44;8.00;3.50;2.75
68698;PMS7003;55680;48.850;2.310;2023-04-06T03:53:09;0.00;0.00;0.00
68698;PMS7003;55680;48.850;2.310;2023-04-06T03:55:35;4.50;0.25;0.00
68698;PMS7003;55680;48.850;2.310;2023-04-06T03:58:00;0.00;0.00;0.00
68698;PMS7003;55680;48.850;2.310;2023-04-06T04:00:26;0.50;0.50;0.00
68698;PMS7003;55680;48.850;2.310;2023-04-06T04:02:51;0.25;0.25;0.00
68698;PMS7003;55680;48.850;2.310;2023-04-06T04:05:17;0.25;0.00;0.00
68698;PMS7003;55680;48.850;2.310;2023-04-06T04:07:42;2.00;0.75;0.00
68698;PMS7003;55680;48.850;2.310;2023-04-06T04:10:08;0.50;0.50;0.00
68698;PMS7003;55680;48.850;2.310;2023-04-06T04:12:33;4.00;2.00;0.75
68698;PMS7003;55680;48.850;2.310;2023-04-06T04:14:59;5.50;5.00;4.00
68698;PMS7003;55680;48.850;2.310;2023-04-06T04:17:24;4.25;0.50;0.00
68698;PMS7003;55680;48.850;2.310;2023-04-06T04:19:50;0.00;0.00;0.00
68698;PMS7003;55680;48.850;2.310;2023-04-06T04:22:15;1.75;1.00;1.00
68698;PMS7003;55680;48.850;2.310;2023-04-06T04:24:40;1.00;1.00;0.25
68698;PMS7003;55680;48.850;2.310;2023-04-06T04:27:06;7.50;4.00;3.00
68698;PMS7003;55680;48.850;2.310;2023-04-06T04:29:31;6.25;3.75;2.50
68698;PMS7003;55680;48.850;2.310;2023-04-06T04:31:57;5.50;1.50;0.75
68698;PMS7003;55680;48.850;2.310;2023-04-06T04:34:22;1.00;0.00;0.00
68698;PMS7003;55680;48.850;2.310;2023-04-06T04:36:51;0.00;0.00;0.00
68698;PMS7003;55680;48.850;2.310;2023-04-06T04:39:17;0.00;0.00;0.00
68698;PMS7003;55680;48.850;2.310;2023-04-06T04:41:42;0.00;0.00;0.00
68698;PMS7003;55680;48.850;2.310;2023-04-06T04:44:07;0.00;0.00;0.00
68698;PMS7003;55680;48.850;2.310;2023-04-06T04:46:33;3.00;0.00;0.00
68698;PMS7003;55680;48.850;2.310;2023-04-06T04:48:58;0.00;0.00;0.00
68698;PMS7003;55680;48.850;2.310;2023-04-06T04:51:23;0.00;0.00;0.00
68698;PMS7003;55680;48.850;2.310;2023-04-06T04:53:50;0.00;0.00;0.00
68698;PMS7003;55680;48.850;2.310;2023-04-06T04:56:15;0.00;0.00;0.00
68698;PMS7003;55680;48.850;2.310;2023-04-06T04:58:41;0.50;0.25;0.00
68698;PMS7003;55680;48.850;2.310;2023-04-06T05:01:06;1.00;1.00;0.75
68698;PMS7003;55680;48.850;2.310;2023-04-06T05:03:32;2.25;0.25;0.00
68698;PMS7003;55680;48.850;2.310;2023-04-06T05:05:57;3.00;1.00;0.50
68698;PMS7003;55680;48.850;2.310;2023-04-06T05:08:23;0.25;0.25;0.00
68698;PMS7003;55680;48.850;2.310;2023-04-06T05:10:48;3.25;3.00;1.00
68698;PMS7003;55680;48.850;2.310;2023-04-06T05:13:14;3.00;1.50;1.50
68698;PMS7003;55680;48.850;2.310;2023-04-06T05:15:39;3.00;3.00;1.00
68698;PMS7003;55680;48.850;2.310;2023-04-06T05:18:05;2.00;0.00;0.00
68698;PMS7003;55680;48.850;2.310;2023-04-06T05:20:31;2.50;2.50;0.00
68698;PMS7003;55680;48.850;2.310;2023-04-06T05:22:57;1.00;1.00;0.75
68698;PMS7003;55680;48.850;2.310;2023-04-06T05:25:22;0.00;0.00;0.00
68698;PMS7003;55680;48.850;2.310;2023-04-06T05:27:47;5.00;2.00;0.50
68698;PMS7003;55680;48.850;2.310;2023-04-06T05:30:13;1.00;0.00;0.00
68698;PMS7003;55680;48.850;2.310;2023-04-06T05:32:38;2.25;1.00;0.00
68698;PMS7003;55680;48.850;2.310;2023-04-06T05:35:04;4.25;3.00;1.00
68698;PMS7003;55680;48.850;2.310;2023-04-06T05:37:30;1.00;1.00;1.00
68698;PMS7003;55680;48.850;2.310;2023-04-06T05:39:55;2.50;2.50;0.00
68698;PMS7003;55680;48.850;2.310;2023-04-06T05:42:21;0.50;0.00;0.00
68698;PMS7003;55680;48.850;2.310;2023-04-06T05:44:47;1.00;1.00;1.00
68698;PMS7003;55680;48.850;2.310;2023-04-06T05:47:12;2.25;0.75;0.00
68698;PMS7003;55680;48.850;2.310;2023-04-06T05:49:38;0.00;0.00;0.00
68698;PMS7003;55680;48.850;2.310;2023-04-06T05:52:03;0.00;0.00;0.00
68698;PMS7003;55680;48.850;2.310;2023-04-06T05:54:29;1.00;1.00;0.00
68698;PMS7003;55680;48.850;2.310;2023-04-06T05:56:55;3.00;3.00;0.00
68698;PMS7003;55680;48.850;2.310;2023-04-06T05:59:20;3.25;2.00;1.50
68698;PMS7003;55680;48.850;2.310;2023-04-06T06:01:45;1.75;1.00;0.00
68698;PMS7003;55680;48.850;2.310;2023-04-06T06:04:11;6.50;5.75;5.00
68698;PMS7003;55680;48.850;2.310;2023-04-06T06:06:36;3.00;1.00;0.00
68698;PMS7003;55680;48.850;2.310;2023-04-06T06:09:02;5.25;2.50;1.00
68698;PMS7003;55680;48.850;2.310;2023-04-06T06:11:28;2.00;2.00;1.00
68698;PMS7003;55680;48.850;2.310;2023-04-06T06:13:54;5.50;3.00;1.00
68698;PMS7003;55680;48.850;2.310;2023-04-06T06:16:19;3.75;1.00;1.00
68698;PMS7003;55680;48.850;2.310;2023-04-06T06:18:45;0.75;0.75;0.50
68698;PMS7003;55680;48.850;2.310;2023-04-06T06:21:10;3.25;0.50;0.50
68698;PMS7003;55680;48.850;2.310;2023-04-06T06:23:39;4.00;1.50;1.00
68698;PMS7003;55680;48.850;2.310;2023-04-06T06:26:06;0.75;0.75;0.50
68698;PMS7003;55680;48.850;2.310;2023-04-06T06:28:31;1.00;1.00;1.00
68698;PMS7003;55680;48.850;2.310;2023-04-06T06:30:57;3.00;3.00;1.00
68698;PMS7003;55680;48.850;2.310;2023-04-06T06:33:23;2.00;1.00;0.75
68698;PMS7003;55680;48.850;2.310;2023-04-06T06:35:49;6.00;3.50;3.00
68698;PMS7003;55680;48.850;2.310;2023-04-06T06:38:16;1.00;1.00;1.00
68698;PMS7003;55680;48.850;2.310;2023-04-06T06:40:41;1.00;1.00;0.50
68698;PMS7003;55680;48.850;2.310;2023-04-06T06:43:06;1.00;1.00;0.00
68698;PMS7003;55680;48.850;2.310;2023-04-06T06:45:32;0.00;0.00;0.00
68698;PMS7003;55680;48.850;2.310;2023-04-06T06:47:57;1.00;1.00;0.00
68698;PMS7003;55680;48.850;2.310;2023-04-06T06:50:23;1.50;0.50;0.00
68698;PMS7003;55680;48.850;2.310;2023-04-06T06:52:48;0.00;0.00;0.00
68698;PMS7003;55680;48.850;2.310;2023-04-06T06:55:14;5.00;3.50;2.00
68698;PMS7003;55680;48.850;2.310;2023-04-06T06:57:40;8.00;3.50;2.00
68698;PMS7003;55680;48.850;2.310;2023-04-06T07:00:07;0.00;0.00;0.00
68698;PMS7003;55680;48.850;2.310;2023-04-06T07:02:34;3.25;1.00;0.75
68698;PMS7003;55680;48.850;2.310;2023-04-06T07:05:00;2.50;2.50;1.00
68698;PMS7003;55680;48.850;2.310;2023-04-06T07:07:26;3.25;3.25;1.00
68698;PMS7003;55680;48.850;2.310;2023-04-06T07:09:51;4.00;2.50;0.75
68698;PMS7003;55680;48.850;2.310;2023-04-06T07:12:16;4.00;1.00;0.50
68698;PMS7003;55680;48.850;2.310;2023-04-06T07:14:42;4.00;1.00;1.00
68698;PMS7003;55680;48.850;2.310;2023-04-06T07:17:07;7.00;3.00;1.00
68698;PMS7003;55680;48.850;2.310;2023-04-06T07:19:33;5.00;3.50;3.00
68698;PMS7003;55680;48.850;2.310;2023-04-06T07:21:58;12.00;4.50;3.50
68698;PMS7003;55680;48.850;2.310;2023-04-06T07:24:24;12.25;10.25;8.75
68698;PMS7003;55680;48.850;2.310;2023-04-06T07:26:49;6.00;3.00;1.00
68698;PMS7003;55680;48.850;2.310;2023-04-06T07:29:15;5.50;3.00;3.00
68698;PMS7003;55680;48.850;2.310;2023-04-06T07:31:40;3.00;3.00;1.00
68698;PMS7003;55680;48.850;2.310;2023-04-06T07:34:05;7.50;6.50;4.00
68698;PMS7003;55680;48.850;2.310;2023-04-06T07:36:31;6.25;4.00;4.00
68698;PMS7003;55680;48.850;2.310;2023-04-06T07:38:56;6.75;4.00;3.00
68698;PMS7003;55680;48.850;2.310;2023-04-06T07:41:21;1.00;1.00;1.00
68698;PMS7003;55680;48.850;2.310;2023-04-06T07:43:47;5.50;3.00;1.50
68698;PMS7003;55680;48.850;2.310;2023-04-06T07:46:12;4.00;4.00;2.50
68698;PMS7003;55680;48.850;2.310;2023-04-06T07:48:38;12.00;4.00;3.00
68698;PMS7003;55680;48.850;2.310;2023-04-06T07:51:04;4.00;1.50;1.00
68698;PMS7003;55680;48.850;2.310;2023-04-06T07:53:30;1.00;1.00;1.00
68698;PMS7003;55680;48.850;2.310;2023-04-06T07:55:55;3.50;3.25;1.00
68698;PMS7003;55680;48.850;2.310;2023-04-06T07:58:22;7.00;3.75;3.50
68698;PMS7003;55680;48.850;2.310;2023-04-06T08:00:47;16.75;11.75;9.75
68698;PMS7003;55680;48.850;2.310;2023-04-06T08:03:13;6.00;4.00;1.00
68698;PMS7003;55680;48.850;2.310;2023-04-06T08:05:38;5.50;5.50;4.00
68698;PMS7003;55680;48.850;2.310;2023-04-06T08:08:03;3.00;3.00;1.00
68698;PMS7003;55680;48.850;2.310;2023-04-06T08:10:29;10.50;8.50;6.00
68698;PMS7003;55680;48.850;2.310;2023-04-06T08:12:54;6.50;6.50;4.00
68698;PMS7003;55680;48.850;2.310;2023-04-06T08:15:20;4.00;4.00;3.00
68698;PMS7003;55680;48.850;2.310;2023-04-06T08:17:45;13.00;10.25;8.25
68698;PMS7003;55680;48.850;2.310;2023-04-06T08:20:11;7.50;6.50;5.00
68698;PMS7003;55680;48.850;2.310;2023-04-06T08:22:36;11.75;10.25;6.50
68698;PMS7003;55680;48.850;2.310;2023-04-06T08:25:01;8.50;6.50;4.00
68698;PMS7003;55680;48.850;2.310;2023-04-06T08:27:27;6.00;6.00;4.00
68698;PMS7003;55680;48.850;2.310;2023-04-06T08:29:52;9.75;6.75;4.00
68698;PMS7003;55680;48.850;2.310;2023-04-06T08:32:18;18.25;11.25;8.50
68698;PMS7003;55680;48.850;2.310;2023-04-06T08:34:43;21.00;19.25;12.00
68698;PMS7003;55680;48.850;2.310;2023-04-06T08:37:08;30.75;30.75;22.50
68698;PMS7003;55680;48.850;2.310;2023-04-06T08:39:34;10.75;7.50;6.00
68698;PMS7003;55680;48.850;2.310;2023-04-06T08:42:00;6.75;6.75;4.50
68698;PMS7003;55680;48.850;2.310;2023-04-06T08:44:28;11.75;10.25;7.00
68698;PMS7003;55680;48.850;2.310;2023-04-06T08:46:57;15.50;15.00;11.00
68698;PMS7003;55680;48.850;2.310;2023-04-06T08:49:22;7.00;7.00;4.00
68698;PMS7003;55680;48.850;2.310;2023-04-06T08:51:48;9.50;5.00;3.00
68698;PMS7003;55680;48.850;2.310;2023-04-06T08:54:14;10.25;8.50;6.75
68698;PMS7003;55680;48.850;2.310;2023-04-06T08:56:39;18.25;15.00;10.50
68698;PMS7003;55680;48.850;2.310;2023-04-06T08:59:05;27.75;21.25;15.00
68698;PMS7003;55680;48.850;2.310;2023-04-06T09:01:32;20.00;17.25;12.75
68698;PMS7003;55680;48.850;2.310;2023-04-06T09:03:59;20.25;17.25;12.00
68698;PMS7003;55680;48.850;2.310;2023-04-06T09:06:25;19.25;15.75;11.00
68698;PMS7003;55680;48.850;2.310;2023-04-06T09:08:52;6.00;6.00;4.00
68698;PMS7003;55680;48.850;2.310;2023-04-06T09:11:17;4.25;1.00;1.00
68698;PMS7003;55680;48.850;2.310;2023-04-06T09:13:53;12.00;4.00;3.00
68698;PMS7003;55680;48.850;2.310;2023-04-06T09:16:19;9.50;6.00;5.00
68698;PMS7003;55680;48.850;2.310;2023-04-06T09:18:45;8.75;7.00;4.00
68698;PMS7003;55680;48.850;2.310;2023-04-06T09:21:12;11.25;6.25;5.00
68698;PMS7003;55680;48.850;2.310;2023-04-06T09:23:38;22.50;15.75;11.25
68698;PMS7003;55680;48.850;2.310;2023-04-06T09:26:13;7.75;4.00;3.00
68698;PMS7003;55680;48.850;2.310;2023-04-06T09:28:41;5.50;4.00;3.00
68698;PMS7003;55680;48.850;2.310;2023-04-06T09:31:10;8.00;5.00;3.00
68698;PMS7003;55680;48.850;2.310;2023-04-06T09:33:38;5.50;2.00;1.00
68698;PMS7003;55680;48.850;2.310;2023-04-06T09:36:04;8.00;3.50;2.50
68698;PMS7003;55680;48.850;2.310;2023-04-06T09:38:31;10.00;7.25;6.50
68698;PMS7003;55680;48.850;2.310;2023-04-06T09:40:56;0.00;0.00;0.00
68698;PMS7003;55680;48.850;2.310;2023-04-06T09:43:26;3.50;3.50;3.00
68698;PMS7003;55680;48.850;2.310;2023-04-06T09:45:52;14.25;10.00;7.00
68698;PMS7003;55680;48.850;2.310;2023-04-06T09:48:18;7.50;3.00;1.75
68698;PMS7003;55680;48.850;2.310;2023-04-06T09:50:45;4.50;2.00;1.00
68698;PMS7003;55680;48.850;2.310;2023-04-06T09:53:10;6.00;3.00;1.00
68698;PMS7003;55680;48.850;2.310;2023-04-06T09:55:42;1.00;1.00;1.00
68698;PMS7003;55680;48.850;2.310;2023-04-06T09:58:17;2.00;2.00;1.00
68698;PMS7003;55680;48.850;2.310;2023-04-06T10:00:50;3.50;2.50;2.00
68698;PMS7003;55680;48.850;2.310;2023-04-06T10:06:04;3.00;0.00;0.00
68698;PMS7003;55680;48.850;2.310;2023-04-06T10:08:31;1.75;1.00;0.00
68698;PMS7003;55680;48.850;2.310;2023-04-06T10:10:58;1.00;1.00;0.00
68698;PMS7003;55680;48.850;2.310;2023-04-06T10:13:25;6.50;3.00;2.00
68698;PMS7003;55680;48.850;2.310;2023-04-06T10:15:51;2.50;2.50;2.00
68698;PMS7003;55680;48.850;2.310;2023-04-06T10:18:17;0.25;0.25;0.00
68698;PMS7003;55680;48.850;2.310;2023-04-06T10:23:24;6.75;5.00;3.50
68698;PMS7003;55680;48.850;2.310;2023-04-06T10:25:55;6.25;5.00;2.00
68698;PMS7003;55680;48.850;2.310;2023-04-06T10:28:22;2.00;2.00;1.00
68698;PMS7003;55680;48.850;2.310;2023-04-06T10:30:48;4.75;4.50;2.00
68698;PMS7003;55680;48.850;2.310;2023-04-06T10:33:14;3.50;1.00;1.00
68698;PMS7003;55680;48.850;2.310;2023-04-06T10:35:41;1.00;1.00;1.00
68698;PMS7003;55680;48.850;2.310;2023-04-06T10:38:06;0.50;0.50;0.00
68698;PMS7003;55680;48.850;2.310;2023-04-06T10:40:35;1.00;1.00;0.00
68698;PMS7003;55680;48.850;2.310;2023-04-06T10:43:18;0.00;0.00;0.00
68698;PMS7003;55680;48.850;2.310;2023-04-06T10:45:44;2.50;1.50;0.50
68698;PMS7003;55680;48.850;2.310;2023-04-06T10:50:39;0.00;0.00;0.00
68698;PMS7003;55680;48.850;2.310;2023-04-06T10:53:06;1.00;1.00;0.50
68698;PMS7003;55680;48.850;2.310;2023-04-06T10:55:32;1.00;0.00;0.00
68698;PMS7003;55680;48.850;2.310;2023-04-06T10:57:57;1.00;1.00;0.75
68698;PMS7003;55680;48.850;2.310;2023-04-06T11:00:23;1.00;1.00;0.50
68698;PMS7003;55680;48.850;2.310;2023-04-06T11:02:49;1.00;0.00;0.00
68698;PMS7003;55680;48.850;2.310;2023-04-06T11:05:14;2.00;1.00;1.00
68698;PMS7003;55680;48.850;2.310;2023-04-06T11:07:40;0.50;0.50;0.00
68698;PMS7003;55680;48.850;2.310;2023-04-06T11:10:09;1.00;1.00;0.25
68698;PMS7003;55680;48.850;2.310;2023-04-06T11:12:35;3.75;2.00;2.00
68698;PMS7003;55680;48.850;2.310;2023-04-06T11:15:01;3.75;3.75;3.00
68698;PMS7003;55680;48.850;2.310;2023-04-06T11:17:29;5.00;5.00;4.50
68698;PMS7003;55680;48.850;2.310;2023-04-06T11:19:56;4.75;4.75;2.50
68698;PMS7003;55680;48.850;2.310;2023-04-06T11:22:22;0.50;0.50;0.00
68698;PMS7003;55680;48.850;2.310;2023-04-06T11:24:47;0.00;0.00;0.00
68698;PMS7003;55680;48.850;2.310;2023-04-06T11:27:14;2.75;2.00;1.75
68698;PMS7003;55680;48.850;2.310;2023-04-06T11:29:41;3.00;3.00;2.75
68698;PMS7003;55680;48.850;2.310;2023-04-06T11:32:06;5.75;4.25;3.25
68698;PMS7003;55680;48.850;2.310;2023-04-06T11:34:34;1.00;1.00;0.00
68698;PMS7003;55680;48.850;2.310;2023-04-06T11:37:04;4.25;2.25;2.00
68698;PMS7003;55680;48.850;2.310;2023-04-06T11:39:37;4.00;3.25;2.75
68698;PMS7003;55680;48.850;2.310;2023-04-06T11:42:04;4.25;3.50;2.00
68698;PMS7003;55680;48.850;2.310;2023-04-06T11:47:04;4.75;4.50;2.75
68698;PMS7003;55680;48.850;2.310;2023-04-06T11:49:31;2.00;2.00;1.00
68698;PMS7003;55680;48.850;2.310;2023-04-06T11:51:57;2.75;2.75;2.00
68698;PMS7003;55680;48.850;2.310;2023-04-06T11:54:32;6.25;3.75;3.00
68698;PMS7003;55680;48.850;2.310;2023-04-06T11:56:59;2.75;2.75;1.50
68698;PMS7003;55680;48.850;2.310;2023-04-06T11:59:25;5.00;3.00;2.00
68698;PMS7003;55680;48.850;2.310;2023-04-06T12:01:52;3.25;3.00;2.00
68698;PMS7003;55680;48.850;2.310;2023-04-06T12:04:18;4.75;3.75;2.75
68698;PMS7003;55680;48.850;2.310;2023-04-06T12:06:43;3.50;2.25;1.25
68698;PMS7003;55680;48.850;2.310;2023-04-06T12:09:09;5.00;4.00;2.00
68698;PMS7003;55680;48.850;2.310;2023-04-06T12:11:34;4.00;2.00;1.50
68698;PMS7003;55680;48.850;2.310;2023-04-06T12:14:00;5.75;3.00;2.00
68698;PMS7003;55680;48.850;2.310;2023-04-06T12:16:26;3.25;3.25;2.00
68698;PMS7003;55680;48.850;2.310;2023-04-06T12:18:52;1.50;1.50;1.50
68698;PMS7003;55680;48.850;2.310;2023-04-06T12:21:17;2.25;1.00;1.00
68698;PMS7003;55680;48.850;2.310;2023-04-06T12:23:42;3.50;3.50;2.25
68698;PMS7003;55680;48.850;2.310;2023-04-06T12:26:08;1.75;1.75;1.00
68698;PMS7003;55680;48.850;2.310;2023-04-06T12:28:33;1.00;1.00;0.00
68698;PMS7003;55680;48.850;2.310;2023-04-06T12:30:59;2.50;2.00;1.75
68698;PMS7003;55680;48.850;2.310;2023-04-06T12:33:25;2.75;2.50;2.00
68698;PMS7003;55680;48.850;2.310;2023-04-06T12:35:50;1.00;1.00;1.00
68698;PMS7003;55680;48.850;2.310;2023-04-06T12:38:16;1.00;1.00;1.00
68698;PMS7003;55680;48.850;2.310;2023-04-06T12:40:42;1.00;1.00;0.50
68698;PMS7003;55680;48.850;2.310;2023-04-06T12:43:07;1.00;1.00;0.25
68698;PMS7003;55680;48.850;2.310;2023-04-06T12:45:33;1.00;1.00;0.00
68698;PMS7003;55680;48.850;2.310;2023-04-06T12:47:59;2.00;1.25;1.00
68698;PMS7003;55680;48.850;2.310;2023-04-06T12:50:26;0.25;0.25;0.00
68698;PMS7003;55680;48.850;2.310;2023-04-06T12:52:51;1.00;1.00;0.00
68698;PMS7003;55680;48.850;2.310;2023-04-06T12:55:17;1.25;1.00;0.75
68698;PMS7003;55680;48.850;2.310;2023-04-06T12:57:42;1.00;1.00;1.00
68698;PMS7003;55680;48.850;2.310;2023-04-06T13:00:07;1.00;1.00;0.00
68698;PMS7003;55680;48.850;2.310;2023-04-06T13:02:33;1.25;0.00;0.00
68698;PMS7003;55680;48.850;2.310;2023-04-06T13:04:59;0.00;0.00;0.00
68698;PMS7003;55680;48.850;2.310;2023-04-06T13:07:25;0.75;0.75;0.25
68698;PMS7003;55680;48.850;2.310;2023-04-06T13:09:51;0.00;0.00;0.00
68698;PMS7003;55680;48.850;2.310;2023-04-06T13:12:16;2.75;1.00;0.50
68698;PMS7003;55680;48.850;2.310;2023-04-06T13:14:42;0.25;0.00;0.00
68698;PMS7003;55680;48.850;2.310;2023-04-06T13:17:08;3.00;2.00;0.00
68698;PMS7003;55680;48.850;2.310;2023-04-06T13:19:33;0.25;0.25;0.00
68698;PMS7003;55680;48.850;2.310;2023-04-06T13:21:59;0.25;0.25;0.00
68698;PMS7003;55680;48.850;2.310;2023-04-06T13:24:24;0.00;0.00;0.00
68698;PMS7003;55680;48.850;2.310;2023-04-06T13:26:50;1.00;1.00;0.75
68698;PMS7003;55680;48.850;2.310;2023-04-06T13:29:15;0.75;0.75;0.00
68698;PMS7003;55680;48.850;2.310;2023-04-06T13:31:41;1.00;0.75;0.00
68698;PMS7003;55680;48.850;2.310;2023-04-06T13:34:06;0.00;0.00;0.00
68698;PMS7003;55680;48.850;2.310;2023-04-06T13:36:31;0.00;0.00;0.00
68698;PMS7003;55680;48.850;2.310;2023-04-06T13:38:57;1.75;0.50;0.00
68698;PMS7003;55680;48.850;2.310;2023-04-06T13:41:23;0.00;0.00;0.00
68698;PMS7003;55680;48.850;2.310;2023-04-06T13:43:50;1.00;1.00;0.75
68698;PMS7003;55680;48.850;2.310;2023-04-06T13:46:16;1.00;1.00;0.25
68698;PMS7003;55680;48.850;2.310;2023-04-06T13:48:41;1.00;1.00;0.00
68698;PMS7003;55680;48.850;2.310;2023-04-06T13:51:08;0.25;0.25;0.00
68698;PMS7003;55680;48.850;2.310;2023-04-06T13:53:34;0.50;0.50;0.50
68698;PMS7003;55680;48.850;2.310;2023-04-06T13:56:00;2.25;0.50;0.00
68698;PMS7003;55680;48.850;2.310;2023-04-06T13:58:25;0.50;0.50;0.00
68698;PMS7003;55680;48.850;2.310;2023-04-06T14:00:50;0.25;0.25;0.00
68698;PMS7003;55680;48.850;2.310;2023-04-06T14:03:16;0.75;0.75;0.00
68698;PMS7003;55680;48.850;2.310;2023-04-06T14:05:41;0.00;0.00;0.00
68698;PMS7003;55680;48.850;2.310;2023-04-06T14:08:07;0.00;0.00;0.00
68698;PMS7003;55680;48.850;2.310;2023-04-06T14:10:36;0.00;0.00;0.00
68698;PMS7003;55680;48.850;2.310;2023-04-06T14:13:05;1.25;0.50;0.00
68698;PMS7003;55680;48.850;2.310;2023-04-06T14:15:31;0.00;0.00;0.00
68698;PMS7003;55680;48.850;2.310;2023-04-06T14:17:56;0.00;0.00;0.00
68698;PMS7003;55680;48.850;2.310;2023-04-06T14:20:22;0.25;0.00;0.00
68698;PMS7003;55680;48.850;2.310;2023-04-06T14:22:48;2.25;0.00;0.00